createdAt,value
2023-03-12T00:00:58.055Z,95.34
2023-03-12T00:01:58.018Z,95.70
2023-03-12T00:02:58.122Z,95.55
2023-03-12T00:03:58.100Z,95.66
2023-03-12T00:04:57.988Z,95.07
2023-03-12T00:06:03.879Z,95.66
2023-03-12T00:06:58.980Z,95.34
2023-03-12T00:07:57.953Z,95.28
2023-03-12T00:08:57.965Z,95.39
2023-03-12T00:09:57.972Z,96.02
2023-03-12T00:10:57.916Z,95.81
2023-03-12T00:11:57.929Z,95.81
2023-03-12T00:12:57.942Z,95.81
2023-03-12T00:13:57.911Z,95.91
2023-03-12T00:14:57.872Z,95.60
2023-03-12T00:15:57.903Z,95.70
2023-03-12T00:16:57.876Z,95.91
2023-03-12T00:17:57.843Z,96.02
2023-03-12T00:18:57.832Z,95.49
2023-03-12T00:19:57.840Z,95.70
2023-03-12T00:20:57.828Z,95.70
2023-03-12T00:21:57.806Z,95.60
2023-03-12T00:22:57.814Z,95.81
2023-03-12T00:23:57.790Z,95.91
2023-03-12T00:24:57.764Z,95.39
2023-03-12T00:25:57.766Z,95.81
2023-03-12T00:26:57.740Z,95.70
2023-03-12T00:27:57.759Z,95.70
2023-03-12T00:28:57.749Z,95.70
2023-03-12T00:29:57.723Z,95.75
2023-03-12T00:30:57.828Z,95.81
2023-03-12T00:31:57.699Z,95.70
2023-03-12T00:32:57.719Z,95.70
2023-03-12T00:33:57.688Z,95.75
2023-03-12T00:34:57.673Z,95.60
2023-03-12T00:35:57.703Z,95.64
2023-03-12T00:36:57.655Z,95.91
2023-03-12T00:37:57.619Z,95.70
2023-03-12T00:38:57.640Z,95.39
2023-03-12T00:39:57.605Z,95.39
2023-03-12T00:40:57.602Z,95.81
2023-03-12T00:41:57.592Z,95.49
2023-03-12T00:42:57.585Z,95.70
2023-03-12T00:43:57.566Z,95.91
2023-03-12T00:44:57.595Z,96.12
2023-03-12T00:45:57.560Z,95.81
2023-03-12T00:46:57.653Z,95.70
2023-03-12T00:47:57.540Z,95.81
2023-03-12T00:48:57.522Z,95.60
2023-03-12T00:49:57.488Z,95.28
2023-03-12T00:50:57.480Z,95.70
2023-03-12T00:51:57.468Z,95.76
2023-03-12T00:52:57.470Z,95.60
2023-03-12T00:53:57.460Z,95.70
2023-03-12T00:54:57.442Z,95.70
2023-03-12T00:55:57.454Z,95.81
2023-03-12T00:56:57.436Z,95.81
2023-03-12T00:57:57.417Z,95.81
2023-03-12T00:58:57.389Z,95.39
2023-03-12T00:59:57.416Z,96.12
2023-03-12T01:00:57.464Z,95.81
2023-03-12T01:01:57.361Z,95.60
2023-03-12T01:02:57.374Z,95.81
2023-03-12T01:03:57.408Z,95.60
2023-03-12T01:04:57.322Z,96.12
2023-03-12T01:05:57.363Z,95.95
2023-03-12T01:07:48.253Z,95.81
2023-03-12T01:08:48.248Z,95.85
2023-03-12T01:09:48.246Z,96.02
2023-03-12T01:10:48.419Z,95.18
2023-03-12T01:11:50.138Z,96.02
2023-03-12T01:12:48.513Z,95.81
2023-03-12T01:13:48.429Z,95.60
2023-03-12T01:14:48.419Z,95.64
2023-03-12T01:15:48.357Z,95.28
2023-03-12T01:16:49.508Z,95.60
2023-03-12T01:17:48.252Z,95.91
2023-03-12T01:18:48.364Z,95.81
2023-03-12T01:19:48.241Z,95.60
2023-03-12T01:20:48.278Z,95.60
2023-03-12T01:21:48.281Z,95.28
2023-03-12T01:22:48.244Z,95.49
2023-03-12T01:23:48.259Z,95.60
2023-03-12T01:24:48.214Z,95.70
2023-03-12T01:25:48.421Z,95.70
2023-03-12T01:26:48.326Z,95.60
2023-03-12T01:27:48.237Z,95.85
2023-03-12T01:28:48.175Z,96.06
2023-03-12T01:29:48.194Z,95.60
2023-03-12T01:30:48.151Z,95.75
2023-03-12T01:31:48.200Z,95.53
2023-03-12T01:32:48.320Z,95.49
2023-03-12T01:33:48.326Z,95.43
2023-03-12T01:34:48.174Z,95.32
2023-03-12T01:35:48.142Z,95.32
2023-03-12T01:36:48.142Z,95.43
2023-03-12T01:37:48.092Z,95.32
2023-03-12T01:38:48.166Z,95.32
2023-03-12T01:39:48.084Z,95.32
2023-03-12T01:40:48.031Z,95.75
2023-03-12T01:41:48.171Z,95.95
2023-03-12T01:42:48.105Z,95.95
2023-03-12T01:43:48.013Z,95.64
2023-03-12T01:44:48.103Z,95.95
2023-03-12T01:45:48.077Z,95.53
2023-03-12T01:46:47.881Z,95.64
2023-03-12T01:47:47.953Z,95.64
2023-03-12T01:48:48.565Z,95.32
2023-03-12T01:49:47.977Z,95.70
2023-03-12T01:50:47.935Z,95.53
2023-03-12T01:51:47.877Z,95.75
2023-03-12T01:52:47.869Z,95.64
2023-03-12T01:53:47.918Z,95.75
2023-03-12T01:54:47.871Z,95.53
2023-03-12T01:55:47.878Z,95.32
2023-03-12T01:56:47.786Z,95.53
2023-03-12T01:57:47.873Z,95.53
2023-03-12T01:58:47.847Z,95.68
2023-03-12T01:59:47.814Z,95.64
2023-03-12T02:00:47.754Z,95.79
2023-03-12T02:01:47.790Z,95.53
2023-03-12T02:02:47.896Z,95.68
2023-03-12T02:03:47.929Z,95.47
2023-03-12T02:04:47.632Z,95.68
2023-03-12T02:05:47.756Z,95.89
2023-03-12T02:06:47.788Z,95.79
2023-03-12T02:07:47.706Z,95.79
2023-03-12T02:08:47.683Z,95.79
2023-03-12T02:09:47.673Z,95.68
2023-03-12T02:10:47.831Z,95.79
2023-03-12T02:11:47.694Z,95.89
2023-03-12T02:12:47.667Z,95.95
2023-03-12T02:13:47.626Z,96.31
2023-03-12T02:14:47.630Z,95.89
2023-03-12T02:15:47.570Z,95.47
2023-03-12T02:16:47.582Z,95.85
2023-03-12T02:17:47.671Z,95.57
2023-03-12T02:18:47.546Z,95.75
2023-03-12T02:19:47.629Z,95.95
2023-03-12T02:20:47.630Z,95.64
2023-03-12T02:21:47.565Z,95.22
2023-03-12T02:22:47.726Z,95.85
2023-03-12T02:23:47.601Z,95.64
2023-03-12T02:24:47.741Z,95.85
2023-03-12T02:25:47.524Z,95.81
2023-03-12T02:26:47.547Z,95.85
2023-03-12T02:27:47.665Z,95.85
2023-03-12T02:28:47.687Z,96.59
2023-03-12T02:29:47.460Z,95.95
2023-03-12T02:30:47.432Z,95.85
2023-03-12T02:31:47.987Z,95.64
2023-03-12T02:32:47.724Z,95.85
2023-03-12T02:33:47.480Z,95.32
2023-03-12T02:34:47.447Z,95.64
2023-03-12T02:35:47.442Z,95.85
2023-03-12T02:36:47.565Z,95.43
2023-03-12T02:37:47.420Z,95.64
2023-03-12T02:38:47.381Z,95.95
2023-03-12T02:39:47.390Z,95.85
2023-03-12T02:40:47.293Z,95.64
2023-03-12T02:41:47.369Z,95.85
2023-03-12T02:42:47.345Z,95.53
2023-03-12T02:43:47.485Z,95.53
2023-03-12T02:44:47.298Z,95.32
2023-03-12T02:45:47.332Z,95.43
2023-03-12T02:46:47.273Z,95.43
2023-03-12T02:47:47.201Z,95.64
2023-03-12T02:48:47.274Z,95.43
2023-03-12T02:49:47.143Z,95.64
2023-03-12T02:50:47.118Z,95.22
2023-03-12T02:51:47.402Z,95.49
2023-03-12T02:52:47.272Z,95.53
2023-03-12T02:53:47.188Z,95.43
2023-03-12T02:54:47.338Z,95.64
2023-03-12T02:55:47.277Z,96.06
2023-03-12T02:56:47.194Z,95.85
2023-03-12T02:57:47.251Z,95.85
2023-03-12T02:58:47.226Z,95.60
2023-03-12T02:59:47.170Z,95.39
2023-03-12T03:00:47.094Z,95.60
2023-03-12T03:01:47.174Z,95.49
2023-03-12T03:02:47.148Z,95.28
2023-03-12T03:03:47.111Z,95.49
2023-03-12T03:04:47.064Z,95.49
2023-03-12T03:05:47.204Z,95.07
2023-03-12T03:06:47.062Z,95.13
2023-03-12T03:07:46.981Z,94.71
2023-03-12T03:08:47.058Z,95.03
2023-03-12T03:09:47.495Z,95.03
2023-03-12T03:10:47.048Z,94.82
2023-03-12T03:11:47.070Z,95.03
2023-03-12T03:12:47.008Z,95.03
2023-03-12T03:13:47.014Z,94.82
2023-03-12T03:14:46.968Z,94.82
2023-03-12T03:15:47.122Z,94.92
2023-03-12T03:16:46.956Z,95.03
2023-03-12T03:17:46.926Z,95.03
2023-03-12T03:18:47.107Z,94.92
2023-03-12T03:19:46.932Z,95.03
2023-03-12T03:20:46.987Z,95.03
2023-03-12T03:21:46.878Z,94.56
2023-03-12T03:22:46.870Z,94.67
2023-03-12T03:23:46.957Z,94.35
2023-03-12T03:24:46.967Z,94.56
2023-03-12T03:25:46.875Z,94.46
2023-03-12T03:26:46.856Z,94.78
2023-03-12T03:27:46.843Z,94.04
2023-03-12T03:28:46.844Z,93.93
2023-03-12T03:29:46.877Z,94.21
2023-03-12T03:30:46.893Z,93.26
2023-03-12T03:31:46.849Z,93.68
2023-03-12T03:32:46.845Z,93.68
2023-03-12T03:33:47.010Z,93.68
2023-03-12T03:34:46.807Z,93.15
2023-03-12T03:35:46.859Z,93.37
2023-03-12T03:36:46.714Z,93.32
2023-03-12T03:37:46.775Z,92.63
2023-03-12T03:38:46.793Z,92.69
2023-03-12T03:39:46.625Z,92.58
2023-03-12T03:40:46.774Z,92.48
2023-03-12T03:41:46.875Z,92.48
2023-03-12T03:42:47.783Z,92.63
2023-03-12T03:43:46.550Z,92.63
2023-03-12T03:44:46.574Z,92.27
2023-03-12T03:45:46.684Z,92.38
2023-03-12T03:46:46.634Z,92.52
2023-03-12T03:47:46.653Z,92.52
2023-03-12T03:48:46.673Z,92.52
2023-03-12T03:49:46.734Z,92.84
2023-03-12T03:50:46.618Z,92.52
2023-03-12T03:51:46.636Z,92.80
2023-03-12T03:52:46.557Z,92.52
2023-03-12T03:53:46.555Z,92.58
2023-03-12T03:54:46.622Z,92.31
2023-03-12T03:55:46.586Z,92.69
2023-03-12T03:56:46.564Z,92.42
2023-03-12T03:57:46.559Z,92.69
2023-03-12T03:58:47.324Z,92.21
2023-03-12T03:59:46.524Z,92.84
2023-03-12T04:00:46.696Z,92.52
2023-03-12T04:01:46.527Z,92.27
2023-03-12T04:02:46.528Z,92.69
2023-03-12T04:03:46.476Z,92.69
2023-03-12T04:04:46.544Z,92.69
2023-03-12T04:05:46.432Z,92.69
2023-03-12T04:06:46.491Z,92.69
2023-03-12T04:07:46.446Z,92.69
2023-03-12T04:08:46.451Z,92.48
2023-03-12T04:09:46.380Z,92.48
2023-03-12T04:10:46.430Z,92.38
2023-03-12T04:11:46.568Z,92.80
2023-03-12T04:12:46.499Z,92.80
2023-03-12T04:13:46.493Z,92.42
2023-03-12T04:14:46.232Z,92.16
2023-03-12T04:15:46.322Z,92.38
2023-03-12T04:16:46.209Z,92.27
2023-03-12T04:17:46.387Z,92.10
2023-03-12T04:18:46.307Z,92.00
2023-03-12T04:19:46.276Z,92.10
2023-03-12T04:20:46.134Z,92.31
2023-03-12T04:21:46.756Z,92.31
2023-03-12T04:22:46.615Z,92.10
2023-03-12T04:23:46.493Z,92.31
2023-03-12T04:24:46.131Z,92.31
2023-03-12T04:25:46.281Z,92.21
2023-03-12T04:26:46.146Z,92.52
2023-03-12T04:27:46.055Z,92.73
2023-03-12T04:28:46.075Z,92.77
2023-03-12T04:29:46.071Z,92.67
2023-03-12T04:30:46.051Z,92.52
2023-03-12T04:31:46.703Z,92.42
2023-03-12T04:32:46.254Z,92.84
2023-03-12T04:33:46.573Z,92.77
2023-03-12T04:34:46.014Z,92.77
2023-03-12T04:35:45.993Z,92.42
2023-03-12T04:36:46.091Z,92.77
2023-03-12T04:37:46.045Z,92.35
2023-03-12T04:38:46.167Z,92.99
2023-03-12T04:39:46.062Z,93.30
2023-03-12T04:40:46.042Z,93.41
2023-03-12T04:41:46.087Z,92.99
2023-03-12T04:42:45.893Z,93.19
2023-03-12T04:43:47.234Z,93.41
2023-03-12T04:44:45.901Z,93.30
2023-03-12T04:45:46.137Z,93.34
2023-03-12T04:46:46.326Z,93.87
2023-03-12T04:47:45.834Z,93.45
2023-03-12T04:48:45.946Z,93.55
2023-03-12T04:49:45.935Z,93.76
2023-03-12T04:50:45.958Z,94.08
2023-03-12T04:51:45.911Z,93.55
2023-03-12T04:52:45.940Z,93.66
2023-03-12T04:53:46.110Z,93.66
2023-03-12T04:54:48.037Z,93.55
2023-03-12T04:55:46.269Z,93.80
2023-03-12T04:56:45.865Z,93.60
2023-03-12T04:57:45.735Z,94.34
2023-03-12T04:58:46.077Z,94.12
2023-03-12T04:59:45.867Z,94.02
2023-03-12T05:00:45.897Z,94.02
2023-03-12T05:01:45.806Z,94.02
2023-03-12T05:02:45.785Z,94.76
2023-03-12T05:03:45.878Z,94.65
2023-03-12T05:04:45.840Z,94.80
2023-03-12T05:05:45.946Z,94.48
2023-03-12T05:06:45.843Z,94.80
2023-03-12T05:07:45.787Z,94.54
2023-03-12T05:08:45.818Z,94.86
2023-03-12T05:09:45.921Z,94.59
2023-03-12T05:10:45.840Z,94.69
2023-03-12T05:11:45.772Z,95.01
2023-03-12T05:12:45.573Z,95.01
2023-03-12T05:13:45.965Z,95.01
2023-03-12T05:14:45.549Z,95.11
2023-03-12T05:15:45.721Z,95.43
2023-03-12T05:16:45.927Z,95.11
2023-03-12T05:17:45.540Z,94.65
2023-03-12T05:18:45.765Z,95.22
2023-03-12T05:19:45.626Z,95.07
2023-03-12T05:20:45.612Z,95.43
2023-03-12T05:21:45.472Z,95.32
2023-03-12T05:22:45.903Z,95.70
2023-03-12T05:23:45.446Z,95.75
2023-03-12T05:24:45.446Z,95.43
2023-03-12T05:25:45.452Z,95.60
2023-03-12T05:26:45.550Z,95.60
2023-03-12T05:27:45.744Z,95.85
2023-03-12T05:28:45.404Z,95.53
2023-03-12T05:29:45.609Z,95.49
2023-03-12T05:30:45.399Z,95.39
2023-03-12T05:31:45.594Z,95.28
2023-03-12T05:32:45.489Z,94.96
2023-03-12T05:33:45.427Z,95.60
2023-03-12T05:34:45.435Z,95.49
2023-03-12T05:35:45.448Z,95.60
2023-03-12T05:36:45.632Z,95.49
2023-03-12T05:37:45.406Z,95.49
2023-03-12T05:38:45.431Z,95.45
2023-03-12T05:39:45.520Z,95.45
2023-03-12T05:40:45.399Z,95.45
2023-03-12T05:41:45.420Z,95.62
2023-03-12T05:42:45.444Z,95.40
2023-03-12T05:43:45.236Z,95.62
2023-03-12T05:44:45.396Z,95.20
2023-03-12T05:45:45.401Z,95.51
2023-03-12T05:46:45.331Z,95.72
2023-03-12T05:47:45.417Z,94.98
2023-03-12T05:48:45.216Z,95.20
2023-03-12T05:49:45.308Z,94.56
2023-03-12T05:50:45.166Z,94.84
2023-03-12T05:51:45.401Z,94.98
2023-03-12T05:52:45.279Z,94.88
2023-03-12T05:53:45.238Z,94.98
2023-03-12T05:54:45.277Z,95.04
2023-03-12T05:55:45.239Z,94.88
2023-03-12T05:56:45.220Z,95.04
2023-03-12T05:57:45.220Z,94.10
2023-03-12T05:58:45.388Z,94.42
2023-03-12T05:59:45.178Z,94.62
2023-03-12T06:00:45.187Z,94.62
2023-03-12T06:01:45.162Z,94.58
2023-03-12T06:02:45.164Z,94.31
2023-03-12T06:03:45.514Z,94.48
2023-03-12T06:04:45.149Z,94.62
2023-03-12T06:05:45.223Z,94.17
2023-03-12T06:06:45.046Z,94.06
2023-03-12T06:07:45.116Z,93.95
2023-03-12T06:08:45.151Z,93.53
2023-03-12T06:09:45.006Z,93.63
2023-03-12T06:10:45.217Z,93.63
2023-03-12T06:11:45.641Z,92.86
2023-03-12T06:12:45.102Z,93.18
2023-03-12T06:13:45.028Z,93.07
2023-03-12T06:14:45.064Z,93.18
2023-03-12T06:15:45.134Z,93.24
2023-03-12T06:16:45.021Z,93.13
2023-03-12T06:17:45.034Z,93.13
2023-03-12T06:18:45.024Z,92.54
2023-03-12T06:19:45.178Z,92.50
2023-03-12T06:20:44.891Z,92.50
2023-03-12T06:21:45.054Z,92.40
2023-03-12T06:22:44.997Z,92.50
2023-03-12T06:23:44.987Z,92.61
2023-03-12T06:24:44.948Z,92.40
2023-03-12T06:25:45.047Z,92.19
2023-03-12T06:26:44.886Z,92.29
2023-03-12T06:27:44.784Z,92.40
2023-03-12T06:28:45.104Z,92.19
2023-03-12T06:29:44.897Z,92.35
2023-03-12T06:30:44.853Z,92.25
2023-03-12T06:31:44.944Z,92.82
2023-03-12T06:32:44.901Z,92.67
2023-03-12T06:33:44.858Z,92.46
2023-03-12T06:34:44.855Z,92.08
2023-03-12T06:35:44.810Z,91.87
2023-03-12T06:36:44.957Z,92.04
2023-03-12T06:37:44.827Z,92.04
2023-03-12T06:38:44.762Z,92.04
2023-03-12T06:39:44.738Z,92.25
2023-03-12T06:40:44.725Z,92.25
2023-03-12T06:41:44.881Z,92.42
2023-03-12T06:42:44.718Z,92.32
2023-03-12T06:43:44.793Z,91.79
2023-03-12T06:44:44.704Z,91.58
2023-03-12T06:45:44.682Z,91.68
2023-03-12T06:46:44.868Z,91.75
2023-03-12T06:47:44.708Z,91.64
2023-03-12T06:48:44.682Z,92.06
2023-03-12T06:49:44.558Z,91.96
2023-03-12T06:50:44.617Z,91.53
2023-03-12T06:51:44.484Z,90.97
2023-03-12T06:52:44.874Z,90.76
2023-03-12T06:53:44.703Z,90.87
2023-03-12T06:54:44.599Z,90.45
2023-03-12T06:55:44.441Z,90.66
2023-03-12T06:56:44.432Z,90.72
2023-03-12T06:57:44.433Z,90.09
2023-03-12T06:58:44.419Z,90.20
2023-03-12T06:59:44.418Z,90.36
2023-03-12T07:00:44.389Z,90.36
2023-03-12T07:01:44.379Z,90.26
2023-03-12T07:02:44.369Z,90.05
2023-03-12T07:03:44.409Z,90.05
2023-03-12T07:04:44.396Z,90.11
2023-03-12T07:05:44.340Z,90.22
2023-03-12T07:06:44.325Z,90.43
2023-03-12T07:07:52.905Z,90.33
2023-03-12T07:08:44.338Z,90.39
2023-03-12T07:09:44.303Z,89.76
2023-03-12T07:10:44.315Z,89.97
2023-03-12T07:11:44.297Z,89.83
2023-03-12T07:12:44.264Z,89.30
2023-03-12T07:13:44.253Z,89.83
2023-03-12T07:14:44.272Z,89.09
2023-03-12T07:15:44.273Z,88.64
2023-03-12T07:16:44.217Z,88.01
2023-03-12T07:17:44.241Z,87.96
2023-03-12T07:18:44.235Z,86.61
2023-03-12T07:19:44.185Z,87.13
2023-03-12T07:20:44.187Z,85.94
2023-03-12T07:21:44.179Z,85.31
2023-03-12T07:22:44.169Z,85.11
2023-03-12T07:23:44.194Z,84.89
2023-03-12T07:24:44.134Z,84.79
2023-03-12T07:25:44.126Z,84.65
2023-03-12T07:26:44.103Z,84.55
2023-03-12T07:27:44.117Z,84.27
2023-03-12T07:28:44.145Z,83.92
2023-03-12T07:29:44.127Z,83.81
2023-03-12T07:30:44.071Z,83.67
2023-03-12T07:31:44.173Z,83.78
2023-03-12T07:32:44.058Z,83.25
2023-03-12T07:33:44.205Z,82.53
2023-03-12T07:34:44.043Z,82.38
2023-03-12T07:35:44.080Z,81.96
2023-03-12T07:36:44.138Z,81.13
2023-03-12T07:37:44.008Z,80.40
2023-03-12T07:38:43.999Z,80.30
2023-03-12T07:39:44.017Z,79.57
2023-03-12T07:40:44.026Z,79.63
2023-03-12T07:41:44.670Z,79.53
2023-03-12T07:42:43.926Z,79.63
2023-03-12T07:43:44.483Z,79.53
2023-03-12T07:44:43.907Z,78.66
2023-03-12T07:45:44.410Z,79.28
2023-03-12T07:46:44.483Z,79.11
2023-03-12T07:47:44.677Z,77.62
2023-03-12T07:48:44.465Z,77.55
2023-03-12T07:49:44.406Z,77.34
2023-03-12T07:50:44.424Z,77.45
2023-03-12T07:51:43.844Z,75.95
2023-03-12T07:52:44.453Z,76.89
2023-03-12T07:53:44.327Z,76.06
2023-03-12T07:54:43.825Z,75.85
2023-03-12T07:55:43.940Z,77.41
2023-03-12T07:56:43.914Z,77.41
2023-03-12T07:57:44.371Z,76.26
2023-03-12T07:58:43.856Z,76.86
2023-03-12T07:59:44.464Z,75.71
2023-03-12T08:00:44.429Z,76.23
2023-03-12T08:01:46.257Z,76.02
2023-03-12T08:02:43.925Z,75.50
2023-03-12T08:03:43.945Z,76.12
2023-03-12T08:04:44.275Z,75.46
2023-03-12T08:05:43.738Z,76.09
2023-03-12T08:06:43.729Z,75.15
2023-03-12T08:07:44.080Z,76.20
2023-03-12T08:08:44.252Z,75.05
2023-03-12T08:09:44.214Z,75.74
2023-03-12T08:10:44.081Z,74.70
2023-03-12T08:11:43.676Z,75.22
2023-03-12T08:12:44.272Z,74.80
2023-03-12T08:13:44.340Z,74.18
2023-03-12T08:14:44.064Z,74.29
2023-03-12T08:15:43.572Z,74.95
2023-03-12T08:16:44.302Z,74.01
2023-03-12T08:17:44.099Z,73.90
2023-03-12T08:18:43.551Z,75.26
2023-03-12T08:19:44.133Z,75.46
2023-03-12T08:20:44.020Z,73.80
2023-03-12T08:21:44.055Z,75.15
2023-03-12T08:22:44.041Z,74.53
2023-03-12T08:23:44.168Z,74.43
2023-03-12T08:24:44.155Z,74.63
2023-03-12T08:25:43.481Z,74.01
2023-03-12T08:26:43.442Z,73.90
2023-03-12T08:27:43.469Z,74.32
2023-03-12T08:28:43.417Z,75.22
2023-03-12T08:29:43.414Z,74.80
2023-03-12T08:30:43.400Z,76.06
2023-03-12T08:31:57.355Z,75.85
2023-03-12T08:32:44.424Z,75.12
2023-03-12T08:33:43.380Z,74.29
2023-03-12T08:34:43.403Z,73.25
2023-03-12T08:35:43.457Z,74.46
2023-03-12T08:36:43.452Z,75.81
2023-03-12T08:37:43.338Z,74.88
2023-03-12T08:38:43.357Z,75.19
2023-03-12T08:39:43.302Z,74.67
2023-03-12T08:40:43.294Z,73.63
2023-03-12T08:41:43.280Z,74.46
2023-03-12T08:42:43.311Z,74.98
2023-03-12T08:43:43.312Z,74.22
2023-03-12T08:44:43.247Z,73.91
2023-03-12T08:45:43.283Z,72.94
2023-03-12T08:46:43.244Z,72.42
2023-03-12T08:47:43.224Z,72.94
2023-03-12T08:48:43.206Z,73.14
2023-03-12T08:49:43.225Z,73.66
2023-03-12T08:50:43.178Z,73.18
2023-03-12T08:51:43.174Z,73.35
2023-03-12T08:52:43.186Z,73.35
2023-03-12T08:53:43.153Z,73.25
2023-03-12T08:54:43.148Z,73.04
2023-03-12T08:55:43.128Z,73.49
2023-03-12T08:56:43.114Z,72.86
2023-03-12T08:57:43.135Z,72.97
2023-03-12T08:58:43.094Z,73.00
2023-03-12T08:59:43.116Z,73.32
2023-03-12T09:00:43.075Z,73.73
2023-03-12T09:01:43.968Z,73.83
2023-03-12T09:02:43.077Z,73.94
2023-03-12T09:03:43.077Z,73.52
2023-03-12T09:04:43.114Z,74.25
2023-03-12T09:05:43.028Z,73.94
2023-03-12T09:06:43.045Z,73.73
2023-03-12T09:07:43.003Z,74.67
2023-03-12T09:08:42.982Z,74.43
2023-03-12T09:09:43.064Z,74.74
2023-03-12T09:10:42.967Z,74.43
2023-03-12T09:11:42.962Z,73.94
2023-03-12T09:12:42.969Z,74.95
2023-03-12T09:14:02.730Z,74.53
2023-03-12T09:15:03.088Z,74.22
2023-03-12T09:15:43.933Z,73.70
2023-03-12T09:16:43.014Z,74.32
2023-03-12T09:17:42.922Z,73.70
2023-03-12T09:18:42.912Z,74.53
2023-03-12T09:19:42.910Z,74.63
2023-03-12T09:20:42.872Z,74.32
2023-03-12T09:21:42.842Z,74.22
2023-03-12T09:22:42.876Z,74.18
2023-03-12T09:23:42.815Z,74.08
2023-03-12T09:24:42.800Z,74.18
2023-03-12T09:25:42.798Z,74.39
2023-03-12T09:26:42.786Z,74.18
2023-03-12T09:27:42.797Z,73.14
2023-03-12T09:28:42.780Z,73.66
2023-03-12T09:29:58.812Z,72.73
2023-03-12T09:30:43.779Z,72.42
2023-03-12T09:31:42.787Z,72.31
2023-03-12T09:32:42.731Z,72.31
2023-03-12T09:33:42.705Z,72.63
2023-03-12T09:34:42.694Z,72.42
2023-03-12T09:35:42.744Z,72.42
2023-03-12T09:36:42.689Z,72.52
2023-03-12T09:37:42.670Z,72.11
2023-03-12T09:38:42.680Z,72.31
2023-03-12T09:39:42.667Z,72.80
2023-03-12T09:40:42.633Z,72.66
2023-03-12T09:41:42.647Z,72.04
2023-03-12T09:42:42.613Z,72.14
2023-03-12T09:43:42.625Z,72.77
2023-03-12T09:44:42.622Z,71.94
2023-03-12T09:45:42.582Z,71.62
2023-03-12T09:46:42.575Z,71.94
2023-03-12T09:47:42.594Z,72.22
2023-03-12T09:48:42.547Z,71.49
2023-03-12T09:49:42.528Z,71.21
2023-03-12T09:50:42.533Z,71.80
2023-03-12T09:51:42.515Z,71.91
2023-03-12T09:52:42.650Z,71.39
2023-03-12T09:53:42.501Z,72.11
2023-03-12T09:54:42.514Z,71.39
2023-03-12T09:55:42.483Z,71.39
2023-03-12T09:56:42.473Z,71.39
2023-03-12T09:57:42.443Z,71.80
2023-03-12T09:58:42.436Z,71.80
2023-03-12T09:59:42.447Z,71.59
2023-03-12T10:00:42.417Z,71.66
2023-03-12T10:01:42.407Z,71.87
2023-03-12T10:02:42.392Z,71.14
2023-03-12T10:03:42.505Z,71.18
2023-03-12T10:04:56.613Z,71.49
2023-03-12T10:05:43.382Z,71.45
2023-03-12T10:06:42.341Z,71.91
2023-03-12T10:07:42.345Z,72.22
2023-03-12T10:08:42.336Z,71.91
2023-03-12T10:09:42.307Z,72.63
2023-03-12T10:10:42.293Z,72.97
2023-03-12T10:11:42.297Z,73.39
2023-03-12T10:12:42.305Z,74.22
2023-03-12T10:13:42.284Z,75.12
2023-03-12T10:14:42.269Z,75.12
2023-03-12T10:15:42.273Z,75.26
2023-03-12T10:16:42.229Z,74.95
2023-03-12T10:17:42.321Z,75.54
2023-03-12T10:18:42.299Z,75.02
2023-03-12T10:19:42.218Z,75.02
2023-03-12T10:20:42.183Z,74.88
2023-03-12T10:21:42.172Z,74.98
2023-03-12T10:22:42.155Z,75.29
2023-03-12T10:23:42.193Z,74.98
2023-03-12T10:24:42.141Z,74.88
2023-03-12T10:25:42.138Z,75.09
2023-03-12T10:26:42.114Z,75.05
2023-03-12T10:27:42.148Z,74.95
2023-03-12T10:28:42.143Z,74.63
2023-03-12T10:29:44.683Z,75.78
2023-03-12T10:30:42.202Z,74.95
2023-03-12T10:31:42.118Z,75.36
2023-03-12T10:32:42.112Z,75.98
2023-03-12T10:33:42.096Z,75.46
2023-03-12T10:34:42.060Z,76.92
2023-03-12T10:35:42.142Z,76.81
2023-03-12T10:36:42.022Z,77.12
2023-03-12T10:37:42.063Z,76.71
2023-03-12T10:38:41.991Z,77.26
2023-03-12T10:39:42.043Z,78.30
2023-03-12T10:40:42.025Z,78.44
2023-03-12T10:41:41.989Z,79.48
2023-03-12T10:42:42.000Z,79.79
2023-03-12T10:43:41.926Z,81.07
2023-03-12T10:44:41.916Z,81.45
2023-03-12T10:45:41.909Z,82.21
2023-03-12T10:46:41.981Z,81.90
2023-03-12T10:47:41.892Z,81.94
2023-03-12T10:48:41.882Z,83.29
2023-03-12T10:49:41.896Z,84.12
2023-03-12T10:50:41.851Z,84.70
2023-03-12T10:51:41.873Z,85.12
2023-03-12T10:52:41.844Z,85.64
2023-03-12T10:53:41.842Z,85.02
2023-03-12T10:54:41.802Z,85.64
2023-03-12T10:55:41.797Z,86.36
2023-03-12T10:56:41.785Z,86.36
2023-03-12T10:57:41.780Z,86.68
2023-03-12T10:58:41.818Z,86.68
2023-03-12T10:59:41.755Z,86.05
2023-03-12T11:00:41.748Z,86.26
2023-03-12T11:01:41.793Z,87.45
2023-03-12T11:02:41.796Z,87.09
2023-03-12T11:03:41.699Z,87.55
2023-03-12T11:04:41.723Z,88.17
2023-03-12T11:05:41.717Z,89.11
2023-03-12T11:06:41.676Z,88.69
2023-03-12T11:07:41.672Z,89.42
2023-03-12T11:08:41.665Z,89.48
2023-03-12T11:09:41.638Z,89.37
2023-03-12T11:10:41.641Z,90.83
2023-03-12T11:11:41.622Z,90.62
2023-03-12T11:12:41.626Z,91.03
2023-03-12T11:13:41.609Z,91.35
2023-03-12T11:14:41.601Z,91.49
2023-03-12T11:15:41.685Z,91.49
2023-03-12T11:16:41.582Z,92.07
2023-03-12T11:17:41.621Z,92.49
2023-03-12T11:18:41.556Z,93.07
2023-03-12T11:19:41.553Z,92.28
2023-03-12T11:20:41.519Z,92.49
2023-03-12T11:21:41.521Z,92.22
2023-03-12T11:22:41.503Z,92.94
2023-03-12T11:23:41.568Z,92.88
2023-03-12T11:24:41.473Z,93.62
2023-03-12T11:25:41.478Z,93.72
2023-03-12T11:26:41.447Z,94.03
2023-03-12T11:27:41.440Z,94.34
2023-03-12T11:28:41.450Z,94.38
2023-03-12T11:29:41.471Z,94.07
2023-03-12T11:30:41.440Z,94.03
2023-03-12T11:31:41.496Z,94.38
2023-03-12T11:32:41.489Z,95.01
2023-03-12T11:33:41.386Z,94.80
2023-03-12T11:34:41.403Z,95.11
2023-03-12T11:35:41.411Z,95.94
2023-03-12T11:36:41.362Z,95.59
2023-03-12T11:37:41.348Z,95.79
2023-03-12T11:38:41.355Z,95.94
2023-03-12T11:39:41.357Z,96.15
2023-03-12T11:40:41.297Z,96.04
2023-03-12T11:41:41.287Z,96.11
2023-03-12T11:42:41.316Z,96.21
2023-03-12T11:43:43.883Z,95.73
2023-03-12T11:44:41.288Z,95.63
2023-03-12T11:45:41.265Z,95.63
2023-03-12T11:46:41.272Z,95.63
2023-03-12T11:47:41.263Z,95.47
2023-03-12T11:48:42.588Z,95.84
2023-03-12T11:49:41.198Z,95.63
2023-03-12T11:50:41.202Z,95.63
2023-03-12T11:51:41.212Z,96.00
2023-03-12T11:52:41.168Z,95.63
2023-03-12T11:53:41.156Z,95.59
2023-03-12T11:54:41.184Z,95.69
2023-03-12T11:55:41.422Z,95.59
2023-03-12T11:56:41.125Z,96.11
2023-03-12T11:57:41.107Z,95.90
2023-03-12T11:58:41.105Z,96.17
2023-03-12T11:59:41.128Z,95.96
2023-03-12T12:00:41.077Z,96.11
2023-03-12T12:01:41.145Z,96.31
2023-03-12T12:02:41.146Z,95.90
2023-03-12T12:03:41.044Z,95.75
2023-03-12T12:04:41.097Z,95.28
2023-03-12T12:05:41.031Z,95.13
2023-03-12T12:06:41.008Z,94.61
2023-03-12T12:07:41.189Z,95.13
2023-03-12T12:08:41.016Z,95.75
2023-03-12T12:09:40.995Z,95.54
2023-03-12T12:10:40.978Z,95.54
2023-03-12T12:11:40.986Z,95.03
2023-03-12T12:12:40.947Z,95.09
2023-03-12T12:13:40.995Z,94.88
2023-03-12T12:14:40.924Z,94.98
2023-03-12T12:15:40.926Z,95.29
2023-03-12T12:16:40.922Z,95.19
2023-03-12T12:17:40.912Z,94.78
2023-03-12T12:18:40.880Z,94.78
2023-03-12T12:19:40.862Z,94.57
2023-03-12T12:20:40.856Z,94.88
2023-03-12T12:21:40.846Z,94.57
2023-03-12T12:22:40.884Z,95.03
2023-03-12T12:23:40.839Z,94.82
2023-03-12T12:24:40.836Z,94.67
2023-03-12T12:25:40.798Z,95.81
2023-03-12T12:26:40.793Z,95.65
2023-03-12T12:27:40.820Z,94.96
2023-03-12T12:28:40.777Z,94.86
2023-03-12T12:29:40.757Z,94.96
2023-03-12T12:30:40.754Z,95.07
2023-03-12T12:31:40.822Z,95.59
2023-03-12T12:32:40.913Z,95.79
2023-03-12T12:33:40.747Z,95.90
2023-03-12T12:34:40.761Z,95.73
2023-03-12T12:35:40.767Z,96.00
2023-03-12T12:36:40.689Z,96.21
2023-03-12T12:37:40.695Z,96.31
2023-03-12T12:38:40.676Z,96.62
2023-03-12T12:39:40.646Z,96.00
2023-03-12T12:40:40.645Z,96.31
2023-03-12T12:41:40.652Z,96.67
2023-03-12T12:42:40.630Z,96.83
2023-03-12T12:43:40.680Z,97.14
2023-03-12T12:44:40.658Z,96.79
2023-03-12T12:45:40.651Z,96.89
2023-03-12T12:46:40.580Z,97.00
2023-03-12T12:47:40.568Z,96.79
2023-03-12T12:48:43.161Z,96.79
2023-03-12T12:49:40.560Z,97.00
2023-03-12T12:50:40.529Z,97.14
2023-03-12T12:51:40.534Z,97.10
2023-03-12T12:52:40.506Z,97.00
2023-03-12T12:53:40.547Z,96.31